Time;durP1;ratioP1;P1;durP2;ratioP2;P2;SDS_P1;SDS_P2;PMS_P1;PMS_P2;Temp;Humidity;BMP_temperature;BMP_pressure;BME280_temperature;BME280_humidity;BME280_pressure;Samples;Min_cycle;Max_cycle;Signal;HPM_P1;HPM_P2
2023/10/20 00:00:41;;;;;;;8.55;1.90;;;16.10;99.90;;;;;;5094955;28;20315;-61
2023/10/20 00:03:06;;;;;;;11.38;2.10;;;16.10;99.90;;;;;;5094539;28;20468;-63
2023/10/20 00:05:33;;;;;;;7.38;1.90;;;16.10;99.90;;;;;;5094312;28;20034;-63
2023/10/20 00:08:00;;;;;;;7.45;2.05;;;16.10;99.90;;;;;;5094192;28;20498;-63
2023/10/20 00:10:26;;;;;;;8.77;2.40;;;16.10;99.90;;;;;;5094245;28;20024;-63
2023/10/20 00:12:52;;;;;;;8.60;2.10;;;16.10;99.90;;;;;;5094146;28;20232;-63
2023/10/20 00:15:18;;;;;;;12.45;2.67;;;16.20;99.90;;;;;;5094813;28;20036;-63
2023/10/20 00:17:43;;;;;;;7.45;2.20;;;16.20;99.90;;;;;;5094349;28;20510;-63
2023/10/20 00:20:09;;;;;;;8.13;2.20;;;16.20;99.90;;;;;;5094199;28;20024;-64
2023/10/20 00:22:35;;;;;;;5.65;1.92;;;16.20;99.90;;;;;;5093858;28;20493;-63
2023/10/20 00:25:01;;;;;;;8.20;2.72;;;16.20;99.90;;;;;;5093900;28;20050;-64
2023/10/20 00:27:28;;;;;;;8.75;2.15;;;16.10;99.90;;;;;;5094044;28;20387;-64
2023/10/20 00:29:54;;;;;;;12.63;2.10;;;16.00;99.90;;;;;;5113132;28;20467;-64
2023/10/20 00:32:19;;;;;;;8.95;2.70;;;15.90;99.90;;;;;;5114137;28;20024;-64
2023/10/20 00:34:45;;;;;;;10.40;2.42;;;15.90;99.90;;;;;;5114469;28;20086;-64
2023/10/20 00:37:11;;;;;;;7.10;2.10;;;15.70;99.90;;;;;;5114384;28;20386;-64
2023/10/20 00:39:37;;;;;;;8.20;2.30;;;15.70;99.90;;;;;;5113766;28;20032;-63
2023/10/20 00:42:03;;;;;;;8.13;1.80;;;15.70;99.90;;;;;;5114556;28;20537;-63
2023/10/20 00:44:29;;;;;;;10.18;2.20;;;15.60;99.90;;;;;;5114108;28;20047;-64
2023/10/20 00:46:55;;;;;;;8.18;2.13;;;15.60;99.90;;;;;;5114350;28;20051;-64
2023/10/20 00:49:21;;;;;;;7.40;1.80;;;15.50;99.90;;;;;;5113621;28;20024;-63
2023/10/20 00:51:47;;;;;;;6.68;2.00;;;15.50;99.90;;;;;;5113740;28;20034;-63
2023/10/20 00:54:15;;;;;;;7.45;2.13;;;15.50;99.90;;;;;;5113871;28;20059;-64
2023/10/20 00:56:41;;;;;;;10.45;1.98;;;15.60;99.90;;;;;;5113982;28;20027;-64
2023/10/20 00:59:08;;;;;;;9.05;2.20;;;15.70;99.90;;;;;;5114277;28;20498;-64
2023/10/20 01:01:35;;;;;;;6.90;1.92;;;15.70;99.90;;;;;;5113524;28;20023;-64
2023/10/20 01:04:01;;;;;;;8.80;2.42;;;15.60;99.90;;;;;;5113780;28;20023;-63
2023/10/20 01:06:27;;;;;;;6.43;1.90;;;15.60;99.90;;;;;;5113386;28;20077;-63
2023/10/20 01:08:59;;;;;;;5.70;1.70;;;15.50;99.90;;;;;;5113591;28;20032;-63
2023/10/20 01:11:24;;;;;;;7.90;2.28;;;15.50;99.90;;;;;;5114005;28;20498;-64
2023/10/20 01:13:50;;;;;;;9.38;2.67;;;15.40;99.90;;;;;;5113309;28;20039;-63
2023/10/20 01:16:18;;;;;;;7.32;2.10;;;15.40;99.90;;;;;;5113483;28;20470;-64
2023/10/20 01:18:44;;;;;;;9.07;2.25;;;15.40;99.90;;;;;;5113550;28;20024;-64
2023/10/20 01:21:10;;;;;;;7.32;2.03;;;15.30;99.90;;;;;;5113132;28;20445;-63
2023/10/20 01:23:37;;;;;;;9.20;2.05;;;15.30;99.90;;;;;;5113333;28;20110;-63
2023/10/20 01:26:03;;;;;;;8.35;1.70;;;15.30;99.90;;;;;;5113741;28;20114;-63
2023/10/20 01:28:29;;;;;;;7.35;1.92;;;15.20;99.90;;;;;;5113390;28;20130;-63
2023/10/20 01:30:57;;;;;;;7.05;1.92;;;15.20;99.90;;;;;;5113113;28;20020;-64
2023/10/20 01:33:22;;;;;;;6.25;1.52;;;15.20;99.90;;;;;;5113020;28;20097;-64
2023/10/20 01:35:48;;;;;;;7.35;1.98;;;15.40;99.90;;;;;;5112792;28;20020;-63
2023/10/20 01:38:14;;;;;;;6.38;1.60;;;15.50;99.90;;;;;;5113476;28;20059;-63
2023/10/20 01:40:39;;;;;;;6.97;2.00;;;15.60;99.90;;;;;;5113167;28;20020;-64
2023/10/20 01:43:05;;;;;;;8.23;2.63;;;15.70;99.90;;;;;;5112910;28;20089;-63
2023/10/20 01:45:31;;;;;;;9.65;2.30;;;15.70;99.90;;;;;;5112821;28;20038;-64
2023/10/20 01:47:56;;;;;;;6.70;2.50;;;15.60;99.90;;;;;;5112638;28;20019;-62
2023/10/20 01:50:23;;;;;;;7.82;2.00;;;15.70;99.90;;;;;;5112947;28;20036;-63
2023/10/20 01:52:49;;;;;;;8.45;2.00;;;15.80;99.90;;;;;;5113013;28;20028;-64
2023/10/20 01:55:15;;;;;;;5.60;1.67;;;15.70;99.90;;;;;;5112844;28;20462;-63
2023/10/20 01:57:40;;;;;;;6.22;2.00;;;15.70;99.90;;;;;;5113111;28;20030;-64
2023/10/20 02:00:13;;;;;;;6.43;2.00;;;15.60;99.90;;;;;;5111828;28;20463;-64
2023/10/20 02:02:39;;;;;;;8.45;2.10;;;15.70;99.90;;;;;;5112336;28;20030;-65
2023/10/20 02:05:08;;;;;;;6.38;1.88;;;15.70;99.90;;;;;;5112897;28;20038;-65
2023/10/20 02:07:34;;;;;;;6.82;1.73;;;15.70;99.90;;;;;;5112501;28;20032;-65
2023/10/20 02:09:59;;;;;;;7.80;2.20;;;15.70;99.90;;;;;;5112630;28;20024;-65
2023/10/20 02:12:25;;;;;;;5.55;1.60;;;15.60;99.90;;;;;;5112365;28;20413;-65
2023/10/20 02:14:51;;;;;;;9.68;1.80;;;15.60;99.90;;;;;;5112333;28;20484;-65
2023/10/20 02:17:16;;;;;;;9.40;1.83;;;15.40;99.90;;;;;;5112010;28;20099;-65
2023/10/20 02:19:42;;;;;;;6.07;1.60;;;15.30;99.90;;;;;;5112411;28;20545;-66
2023/10/20 02:22:08;;;;;;;7.05;1.83;;;15.20;99.90;;;;;;5112617;28;20524;-65
2023/10/20 02:24:33;;;;;;;8.20;1.73;;;15.00;99.90;;;;;;5112205;28;20480;-67
2023/10/20 02:26:59;;;;;;;9.43;2.25;;;15.00;99.90;;;;;;5112303;28;20062;-64
2023/10/20 02:29:25;;;;;;;7.45;1.90;;;15.00;99.90;;;;;;5111949;28;20077;-65
2023/10/20 02:31:51;;;;;;;8.93;1.67;;;15.00;99.90;;;;;;5111690;28;20059;-65
2023/10/20 02:34:17;;;;;;;8.45;2.03;;;14.90;99.90;;;;;;5112056;28;20373;-65
2023/10/20 02:36:42;;;;;;;7.75;1.77;;;14.90;99.90;;;;;;5112362;28;20084;-65
2023/10/20 02:39:08;;;;;;;4.35;1.20;;;14.90;99.90;;;;;;5112174;28;20110;-65
2023/10/20 02:41:34;;;;;;;8.07;1.90;;;14.90;99.90;;;;;;5111708;28;20023;-65
2023/10/20 02:43:59;;;;;;;6.35;1.40;;;14.80;99.90;;;;;;5111917;28;20026;-65
2023/10/20 02:46:25;;;;;;;8.88;1.67;;;14.80;99.90;;;;;;5111576;28;20026;-65
2023/10/20 02:48:51;;;;;;;5.15;1.67;;;14.80;99.90;;;;;;5112260;28;20038;-65
2023/10/20 02:51:17;;;;;;;6.60;1.70;;;14.80;99.90;;;;;;5111928;28;20020;-65
2023/10/20 02:53:43;;;;;;;6.82;1.55;;;14.80;99.90;;;;;;5111682;28;20040;-65
2023/10/20 02:56:13;;;;;;;5.90;1.75;;;14.80;99.90;;;;;;5112277;28;20500;-65
2023/10/20 02:58:39;;;;;;;7.53;2.13;;;14.70;99.90;;;;;;5111729;28;20493;-66
2023/10/20 03:01:09;;;;;;;4.20;1.30;;;14.70;99.90;;;;;;5111333;28;20489;-65
2023/10/20 03:03:35;;;;;;;6.20;1.40;;;14.70;99.90;;;;;;5111444;28;20027;-66
2023/10/20 03:06:03;;;;;;;6.95;1.75;;;14.60;99.90;;;;;;5111846;28;20509;-66
2023/10/20 03:08:29;;;;;;;6.50;1.65;;;14.60;99.90;;;;;;5111461;28;20046;-65
2023/10/20 03:10:56;;;;;;;6.90;1.55;;;14.60;99.90;;;;;;5111641;28;20489;-65
2023/10/20 03:13:25;;;;;;;6.32;1.67;;;14.60;99.90;;;;;;5111747;28;20172;-65
2023/10/20 03:15:51;;;;;;;5.85;1.48;;;14.60;99.90;;;;;;5111340;28;20106;-66
2023/10/20 03:18:17;;;;;;;6.65;1.77;;;14.50;99.90;;;;;;5111523;28;20100;-65
2023/10/20 03:20:43;;;;;;;6.20;1.60;;;14.60;99.90;;;;;;5111496;28;20057;-65
2023/10/20 03:23:10;;;;;;;6.95;1.50;;;14.80;99.90;;;;;;5111891;28;20092;-65
2023/10/20 03:25:36;;;;;;;6.25;1.95;;;15.00;99.90;;;;;;5110799;28;20107;-65
2023/10/20 03:28:03;;;;;;;5.57;1.70;;;15.10;99.90;;;;;;5111719;28;20150;-65
2023/10/20 03:30:29;;;;;;;5.47;1.58;;;15.10;99.90;;;;;;5110940;28;20027;-65
2023/10/20 03:32:55;;;;;;;5.65;1.35;;;15.20;99.90;;;;;;5111077;28;20496;-65
2023/10/20 03:35:21;;;;;;;8.10;1.70;;;15.20;99.90;;;;;;5111890;28;20110;-65
2023/10/20 03:37:54;;;;;;;4.47;1.38;;;15.20;99.90;;;;;;5111305;28;20026;-65
2023/10/20 03:43:24;;;;;;;4.63;1.50;;;15.30;99.90;;;;;;5097997;28;20046;-65
2023/10/20 03:45:51;;;;;;;5.32;1.40;;;15.50;99.90;;;;;;5110724;28;20047;-65
2023/10/20 03:48:19;;;;;;;5.97;1.85;;;15.40;99.90;;;;;;5111095;28;20511;-65
2023/10/20 03:50:46;;;;;;;5.40;1.30;;;15.50;99.90;;;;;;5111182;28;20630;-65
2023/10/20 03:53:18;;;;;;;6.68;1.60;;;15.60;99.90;;;;;;5111140;28;20058;-65
2023/10/20 03:55:44;;;;;;;4.57;1.55;;;15.50;99.90;;;;;;5111118;28;20032;-65
2023/10/20 03:58:11;;;;;;;6.50;1.83;;;15.60;99.90;;;;;;5111359;28;20081;-65
2023/10/20 04:00:41;;;;;;;5.47;1.60;;;15.60;99.90;;;;;;5110806;28;20111;-64
2023/10/20 04:03:08;;;;;;;5.55;1.70;;;15.40;99.90;;;;;;5111050;28;20028;-64
2023/10/20 04:05:34;;;;;;;6.07;1.60;;;15.30;99.90;;;;;;5111152;28;20055;-65
2023/10/20 04:07:59;;;;;;;6.60;1.80;;;15.30;99.90;;;;;;5111365;28;20047;-65
2023/10/20 04:10:25;;;;;;;6.20;1.52;;;15.20;99.90;;;;;;5110883;28;20024;-65
2023/10/20 04:12:52;;;;;;;4.88;1.90;;;15.20;99.90;;;;;;5110825;28;20031;-65
2023/10/20 04:15:25;;;;;;;5.95;1.75;;;15.10;99.90;;;;;;5110775;28;20032;-65
2023/10/20 04:17:56;;;;;;;6.60;1.85;;;15.00;99.90;;;;;;5111219;28;20102;-65
2023/10/20 04:20:23;;;;;;;6.70;1.70;;;15.00;99.90;;;;;;5110859;28;20114;-65
2023/10/20 04:22:49;;;;;;;5.22;1.98;;;14.90;99.90;;;;;;5111369;28;20020;-65
2023/10/20 04:25:16;;;;;;;9.85;2.10;;;14.90;99.90;;;;;;5114698;28;20516;-65
2023/10/20 04:52:54;;;;;;;7.22;2.10;;;14.80;99.90;;;;;;5113986;28;19903;-65
2023/10/20 05:08:04;;;;;;;7.72;2.50;;;14.90;99.90;;;;;;5113742;28;20024;-65
2023/10/20 05:10:29;;;;;;;9.45;2.50;;;15.10;99.90;;;;;;5113529;28;20397;-66
2023/10/20 05:12:55;;;;;;;10.02;2.42;;;15.20;99.90;;;;;;5113611;28;20023;-66
2023/10/20 05:15:21;;;;;;;10.68;2.63;;;15.30;99.90;;;;;;5113791;28;20110;-65
2023/10/20 05:17:46;;;;;;;7.50;2.70;;;15.40;99.90;;;;;;5113401;28;20074;-66
2023/10/20 05:20:13;;;;;;;7.45;2.60;;;15.50;99.90;;;;;;5113524;28;20039;-65
2023/10/20 05:22:42;;;;;;;9.02;2.47;;;15.50;99.90;;;;;;5113584;28;20027;-65
2023/10/20 05:25:13;;;;;;;14.85;3.15;;;15.50;99.90;;;;;;5113544;28;20513;-66
2023/10/20 05:27:40;;;;;;;8.55;2.78;;;15.50;99.90;;;;;;5112795;28;20034;-64
2023/10/20 05:30:07;;;;;;;8.55;2.88;;;15.60;99.90;;;;;;5113655;28;20039;-65
2023/10/20 05:32:34;;;;;;;10.38;2.80;;;15.60;99.90;;;;;;5113168;28;20035;-65
2023/10/20 05:35:03;;;;;;;9.73;2.72;;;15.70;99.90;;;;;;5112154;28;20035;-66
2023/10/20 05:37:32;;;;;;;12.57;3.00;;;15.60;99.90;;;;;;5113036;28;20412;-65
2023/10/20 05:40:00;;;;;;;10.50;2.45;;;15.60;99.90;;;;;;5112940;28;20023;-65
2023/10/20 05:42:26;;;;;;;7.50;2.70;;;15.70;99.90;;;;;;5112829;28;20027;-66
2023/10/20 05:45:10;;;;;;;10.88;3.20;;;15.50;99.90;;;;;;5113478;27;20038;-65
2023/10/20 05:47:36;;;;;;;11.63;3.00;;;15.50;99.90;;;;;;5112794;28;20077;-65
2023/10/20 05:50:02;;;;;;;9.52;2.65;;;15.40;99.90;;;;;;5113001;28;20114;-65
2023/10/20 05:52:29;;;;;;;10.48;2.75;;;15.30;99.90;;;;;;5112692;28;20035;-65
2023/10/20 05:54:56;;;;;;;11.80;2.83;;;15.30;99.90;;;;;;5112924;28;20031;-65
2023/10/20 05:57:22;;;;;;;9.27;3.30;;;15.20;99.90;;;;;;5112954;28;20019;-65
2023/10/20 05:59:48;;;;;;;11.30;2.88;;;15.20;99.90;;;;;;5112913;28;20481;-65
2023/10/20 06:02:14;;;;;;;8.35;2.63;;;15.10;99.90;;;;;;5112517;28;20038;-64
2023/10/20 06:04:40;;;;;;;9.38;2.58;;;15.00;99.90;;;;;;5112547;28;20027;-64
2023/10/20 06:07:07;;;;;;;8.95;2.65;;;15.00;99.90;;;;;;5112819;28;20027;-64
2023/10/20 06:09:32;;;;;;;10.82;2.60;;;15.00;99.90;;;;;;5112218;28;20028;-63
2023/10/20 06:11:59;;;;;;;9.63;2.97;;;14.90;99.90;;;;;;5112547;28;20409;-64
2023/10/20 06:14:25;;;;;;;8.98;2.50;;;14.90;99.90;;;;;;5112636;28;20080;-65
2023/10/20 06:16:51;;;;;;;9.50;3.00;;;14.90;99.90;;;;;;5112098;28;20019;-64
2023/10/20 06:19:18;;;;;;;9.93;2.70;;;14.90;99.90;;;;;;5111191;28;20131;-64
2023/10/20 06:21:43;;;;;;;11.57;2.60;;;14.90;99.90;;;;;;5111611;28;20434;-65
2023/10/20 06:24:09;;;;;;;8.80;2.60;;;14.90;99.90;;;;;;5111630;28;20102;-65
2023/10/20 06:26:35;;;;;;;10.07;2.80;;;14.80;99.90;;;;;;5112201;28;20164;-65
2023/10/20 06:29:02;;;;;;;10.50;2.70;;;14.80;99.90;;;;;;5111732;28;20180;-65
2023/10/20 06:31:41;;;;;;;11.20;2.72;;;14.80;99.90;;;;;;5112091;28;20127;-66
2023/10/20 06:36:46;;;;;;;11.13;2.80;;;14.70;99.90;;;;;;5112005;28;20019;-65
2023/10/20 06:39:13;;;;;;;9.10;2.70;;;14.70;99.90;;;;;;5112064;28;20023;-65
2023/10/20 06:41:39;;;;;;;8.68;2.63;;;14.70;99.90;;;;;;5111712;28;20032;-64
2023/10/20 06:44:05;;;;;;;9.10;2.78;;;14.80;99.90;;;;;;5112179;28;20047;-65
2023/10/20 06:46:31;;;;;;;8.13;2.72;;;14.70;99.90;;;;;;5111615;28;20066;-65
2023/10/20 06:48:56;;;;;;;9.85;2.83;;;14.60;99.90;;;;;;5111578;28;20028;-65
2023/10/20 06:51:25;;;;;;;9.35;2.50;;;14.60;99.90;;;;;;5111755;28;20055;-65
2023/10/20 06:53:50;;;;;;;8.02;2.40;;;14.60;99.90;;;;;;5111667;28;20501;-65
2023/10/20 06:56:16;;;;;;;10.80;2.83;;;14.80;99.90;;;;;;5111478;28;20065;-65
2023/10/20 06:58:42;;;;;;;6.07;2.00;;;14.70;99.90;;;;;;5093558;28;20039;-65
2023/10/20 07:01:08;;;;;;;7.85;2.30;;;14.80;99.90;;;;;;5111177;28;20152;-64
2023/10/20 07:03:34;;;;;;;6.50;1.90;;;15.00;99.90;;;;;;5093390;28;20435;-66
2023/10/20 07:06:00;;;;;;;7.07;2.25;;;15.00;99.90;;;;;;5111492;28;20046;-65
2023/10/20 07:08:26;;;;;;;6.43;2.00;;;15.10;99.90;;;;;;5111455;28;20031;-66
2023/10/20 07:10:52;;;;;;;8.55;2.75;;;15.30;99.90;;;;;;5111455;28;20027;-66
2023/10/20 07:13:18;;;;;;;6.95;2.08;;;15.40;99.90;;;;;;5111628;28;20040;-66
2023/10/20 07:15:44;;;;;;;6.85;2.10;;;15.30;99.90;;;;;;5111893;28;20020;-66
2023/10/20 07:18:13;;;;;;;7.78;2.70;;;15.20;99.90;;;;;;5111621;28;20028;-66
2023/10/20 07:20:39;;;;;;;6.43;2.10;;;15.20;99.90;;;;;;5111414;28;20019;-65
2023/10/20 07:23:08;;;;;;;8.63;2.53;;;15.50;99.90;;;;;;5111215;28;20515;-66
2023/10/20 07:25:34;;;;;;;10.23;3.00;;;15.50;99.90;;;;;;5111629;28;20083;-66
2023/10/20 07:28:00;;;;;;;11.68;3.22;;;15.50;99.90;;;;;;5111406;28;21745;-66
2023/10/20 07:30:29;;;;;;;12.32;3.22;;;15.60;99.90;;;;;;5111450;28;20110;-65
2023/10/20 07:32:55;;;;;;;16.80;3.47;;;15.80;99.90;;;;;;5111439;28;20188;-64
2023/10/20 07:35:21;;;;;;;13.35;4.13;;;15.90;99.90;;;;;;5111933;28;20505;-65
2023/10/20 07:37:47;;;;;;;13.05;3.67;;;15.80;99.90;;;;;;5111050;28;20504;-66
2023/10/20 07:40:13;;;;;;;13.32;4.30;;;15.70;99.90;;;;;;5111411;28;20035;-65
2023/10/20 07:42:39;;;;;;;11.88;3.72;;;15.70;99.90;;;;;;5111491;28;20023;-65
2023/10/20 07:45:08;;;;;;;11.90;3.42;;;15.60;99.90;;;;;;5111294;28;20634;-66
2023/10/20 07:47:34;;;;;;;15.15;4.28;;;15.60;99.90;;;;;;5111430;28;20558;-65
2023/10/20 07:50:00;;;;;;;19.77;5.53;;;15.50;99.90;;;;;;5111182;28;20084;-65
2023/10/20 07:52:26;;;;;;;17.60;5.53;;;15.40;99.90;;;;;;5111118;28;20081;-65
2023/10/20 07:54:52;;;;;;;16.95;4.43;;;15.30;99.90;;;;;;5110971;28;20540;-65
2023/10/20 07:57:20;;;;;;;20.35;5.05;;;15.40;99.90;;;;;;5111685;28;20493;-65
2023/10/20 07:59:46;;;;;;;20.85;5.75;;;15.40;99.90;;;;;;5114871;28;20405;-66
2023/10/20 08:02:12;;;;;;;21.63;5.93;;;15.50;99.90;;;;;;5115154;28;20019;-65
2023/10/20 08:04:40;;;;;;;27.88;7.10;;;15.50;99.90;;;;;;5114903;28;20028;-66
2023/10/20 08:07:06;;;;;;;30.13;6.90;;;15.70;99.90;;;;;;5114755;28;20036;-65
2023/10/20 08:09:32;;;;;;;24.80;5.82;;;15.80;99.90;;;;;;5114939;28;20047;-65
2023/10/20 08:11:59;;;;;;;31.40;6.75;;;16.00;99.90;;;;;;5115056;28;20035;-65
2023/10/20 08:14:27;;;;;;;27.08;6.38;;;16.10;99.90;;;;;;5115151;28;20028;-65
2023/10/20 08:16:53;;;;;;;29.85;6.80;;;16.10;99.90;;;;;;5114476;28;20424;-66
2023/10/20 08:19:19;;;;;;;28.35;6.18;;;16.10;99.90;;;;;;5114896;28;20024;-64
2023/10/20 08:21:44;;;;;;;30.98;6.63;;;16.10;99.90;;;;;;5114738;28;20027;-65
2023/10/20 08:24:10;;;;;;;32.25;7.10;;;16.20;99.90;;;;;;5114613;28;20565;-65
2023/10/20 08:26:37;;;;;;;39.33;7.57;;;16.20;99.90;;;;;;5114832;28;20032;-65
2023/10/20 08:29:06;;;;;;;23.73;5.95;;;16.20;99.90;;;;;;5114533;28;20043;-65
2023/10/20 08:31:31;;;;;;;23.92;5.65;;;16.20;99.90;;;;;;5114464;28;20020;-65
2023/10/20 08:33:58;;;;;;;29.08;6.13;;;16.20;99.90;;;;;;5114660;28;20039;-65
2023/10/20 08:36:26;;;;;;;28.13;6.40;;;16.20;99.90;;;;;;5114189;28;20047;-65
2023/10/20 08:38:52;;;;;;;29.67;6.05;;;16.30;99.90;;;;;;5114686;28;20413;-65
2023/10/20 08:41:21;;;;;;;29.08;6.65;;;16.30;99.90;;;;;;5114292;28;20031;-65
2023/10/20 08:43:48;;;;;;;31.95;6.90;;;16.50;99.90;;;;;;5114162;28;20073;-66
2023/10/20 08:46:15;;;;;;;28.65;6.20;;;16.70;99.90;;;;;;5114161;28;20027;-66
2023/10/20 08:48:42;;;;;;;26.15;6.40;;;17.00;99.90;;;;;;5114026;28;20038;-65
2023/10/20 08:51:10;;;;;;;28.67;6.60;;;17.10;99.90;;;;;;5114139;28;20044;-65
2023/10/20 08:53:37;;;;;;;27.42;6.47;;;17.10;99.90;;;;;;5114003;28;20417;-66
2023/10/20 08:56:07;;;;;;;29.55;6.88;;;17.20;99.90;;;;;;5113851;28;20024;-66
2023/10/20 08:58:33;;;;;;;31.90;7.47;;;17.30;99.90;;;;;;5114441;28;20485;-66
2023/10/20 09:00:59;;;;;;;25.60;6.47;;;17.40;99.90;;;;;;5113745;28;20027;-65
2023/10/20 09:03:38;;;;;;;23.95;6.32;;;17.50;99.90;;;;;;5113723;28;20024;-64
2023/10/20 09:06:05;;;;;;;22.23;6.18;;;17.50;99.90;;;;;;5113980;28;20047;-65
2023/10/20 09:08:32;;;;;;;28.30;6.97;;;17.50;99.90;;;;;;5113524;28;20511;-65
2023/10/20 09:10:57;;;;;;;34.45;8.10;;;17.50;99.90;;;;;;5114063;28;20034;-65
2023/10/20 09:13:30;;;;;;;29.80;7.47;;;17.40;99.90;;;;;;5113790;28;20035;-65
2023/10/20 09:15:56;;;;;;;32.40;8.27;;;17.50;99.90;;;;;;5113660;28;20023;-65
2023/10/20 09:18:22;;;;;;;37.78;8.32;;;17.60;99.90;;;;;;5113661;28;20031;-65
2023/10/20 09:20:47;;;;;;;35.33;8.55;;;17.70;99.90;;;;;;5113469;28;20055;-65
2023/10/20 09:23:13;;;;;;;30.70;7.75;;;17.60;99.90;;;;;;5094874;28;20122;-66
2023/10/20 09:25:39;;;;;;;30.35;7.55;;;17.50;99.90;;;;;;5113367;28;20028;-66
2023/10/20 09:28:05;;;;;;;31.20;6.80;;;17.40;99.90;;;;;;5113271;28;20092;-66
2023/10/20 09:30:32;;;;;;;26.13;7.00;;;17.40;99.90;;;;;;5095370;28;20123;-66
2023/10/20 09:32:58;;;;;;;28.13;7.03;;;17.40;99.90;;;;;;5112887;28;20153;-66
2023/10/20 09:35:25;;;;;;;30.10;7.10;;;17.50;99.90;;;;;;5113382;28;20553;-65
2023/10/20 09:37:54;;;;;;;28.02;6.78;;;17.50;99.90;;;;;;5113223;28;20112;-65
2023/10/20 09:40:21;;;;;;;24.13;5.80;;;17.60;99.90;;;;;;5113502;28;20020;-65
2023/10/20 09:43:08;;;;;;;25.00;6.10;;;17.60;99.90;;;;;;5113232;28;20024;-66
2023/10/20 09:45:39;;;;;;;28.58;6.25;;;17.60;99.90;;;;;;5112925;28;20019;-65
2023/10/20 09:48:10;;;;;;;27.13;6.05;;;17.70;99.90;;;;;;5112867;28;20019;-65
2023/10/20 09:50:37;;;;;;;23.42;5.88;;;17.70;99.90;;;;;;5113115;28;20028;-66
2023/10/20 09:53:04;;;;;;;24.98;6.00;;;17.70;99.90;;;;;;5113051;28;20043;-65
2023/10/20 09:55:30;;;;;;;22.55;5.28;;;17.70;99.90;;;;;;5113367;28;20020;-66
2023/10/20 09:57:57;;;;;;;23.02;5.90;;;17.90;99.90;;;;;;5113063;28;20026;-65
2023/10/20 10:00:33;;;;;;;22.52;5.85;;;17.90;99.90;;;;;;5112703;28;20035;-65
2023/10/20 10:02:59;;;;;;;21.58;5.45;;;18.10;99.90;;;;;;5112473;28;20061;-65
2023/10/20 10:05:26;;;;;;;23.15;5.75;;;18.10;99.90;;;;;;5112855;28;20019;-65
2023/10/20 10:08:08;;;;;;;22.05;5.78;;;18.00;99.90;;;;;;5112252;28;20463;-65
2023/10/20 10:10:35;;;;;;;23.95;6.13;;;17.90;99.90;;;;;;5112757;28;20111;-66
2023/10/20 10:13:05;;;;;;;31.00;6.53;;;17.80;99.90;;;;;;5112218;28;20048;-66
2023/10/20 10:15:38;;;;;;;27.23;7.45;;;17.80;99.90;;;;;;5112088;28;20042;-65
2023/10/20 10:18:11;;;;;;;34.27;8.00;;;17.70;99.90;;;;;;5112248;28;20030;-67
2023/10/20 10:20:47;;;;;;;26.80;6.03;;;17.70;99.90;;;;;;5111405;28;20265;-65
2023/10/20 10:23:14;;;;;;;26.15;6.13;;;17.50;99.90;;;;;;5112297;28;20123;-65
2023/10/20 10:25:47;;;;;;;34.03;7.97;;;17.50;99.90;;;;;;5111892;28;20419;-65
2023/10/20 10:28:17;;;;;;;33.72;7.95;;;17.70;99.90;;;;;;5112001;28;20511;-65
2023/10/20 10:30:45;;;;;;;33.10;8.82;;;17.90;99.90;;;;;;5111739;28;20028;-65
2023/10/20 10:33:12;;;;;;;34.58;9.27;;;18.10;99.90;;;;;;5111999;28;20389;-65
2023/10/20 10:35:39;;;;;;;33.05;8.85;;;18.30;99.90;;;;;;5093796;28;20049;-65
2023/10/20 10:38:21;;;;;;;23.95;6.18;;;18.50;99.90;;;;;;5112199;28;20550;-65
2023/10/20 10:40:51;;;;;;;23.80;6.35;;;18.40;99.90;;;;;;5112074;28;20038;-65
2023/10/20 10:43:18;;;;;;;21.20;6.07;;;18.50;99.90;;;;;;5111932;28;20051;-66
2023/10/20 10:45:44;;;;;;;26.05;5.93;;;18.50;99.90;;;;;;5111312;28;20512;-65
2023/10/20 10:48:11;;;;;;;27.98;6.18;;;18.70;99.90;;;;;;5112046;28;20027;-63
2023/10/20 10:50:41;;;;;;;22.83;5.78;;;18.70;99.90;;;;;;5111633;28;20436;-64
2023/10/20 10:53:07;;;;;;;20.48;5.55;;;18.80;99.90;;;;;;5110497;28;20032;-63
2023/10/20 10:55:36;;;;;;;21.42;5.80;;;18.90;99.90;;;;;;5111547;28;20036;-65
2023/10/20 10:58:06;;;;;;;22.85;5.55;;;18.90;99.90;;;;;;5111486;28;20023;-65
2023/10/20 11:00:33;;;;;;;21.33;6.13;;;18.80;99.90;;;;;;5111506;28;20023;-65
2023/10/20 11:03:01;;;;;;;25.88;6.80;;;18.70;99.90;;;;;;5093418;28;20016;-64
2023/10/20 11:05:28;;;;;;;28.35;7.13;;;18.80;99.90;;;;;;5111804;28;20047;-65
2023/10/20 11:08:05;;;;;;;26.20;6.57;;;18.60;99.90;;;;;;5111306;28;20035;-65
2023/10/20 11:10:36;;;;;;;30.75;7.63;;;18.50;99.90;;;;;;5111562;28;20028;-65
2023/10/20 11:13:06;;;;;;;30.95;7.30;;;18.40;99.90;;;;;;5111464;28;20023;-65
2023/10/20 11:15:33;;;;;;;24.52;6.95;;;18.40;99.90;;;;;;5111156;28;20106;-65
2023/10/20 11:18:04;;;;;;;21.65;6.05;;;18.40;99.90;;;;;;5111930;28;20046;-63
2023/10/20 11:20:34;;;;;;;27.85;6.90;;;18.30;99.90;;;;;;5111097;28;20435;-65
2023/10/20 11:23:00;;;;;;;27.10;6.80;;;18.30;99.90;;;;;;5111484;28;20034;-65
2023/10/20 11:25:26;;;;;;;26.50;7.35;;;18.20;99.90;;;;;;5111258;28;20114;-65
2023/10/20 11:27:56;;;;;;;27.80;6.75;;;18.10;99.90;;;;;;5111461;28;20446;-65
2023/10/20 11:30:26;;;;;;;19.77;5.30;;;18.00;99.90;;;;;;5111045;28;20050;-64
2023/10/20 11:32:55;;;;;;;20.58;5.75;;;17.90;99.90;;;;;;5113151;28;20455;-65
2023/10/20 11:35:22;;;;;;;22.80;5.80;;;17.90;99.90;;;;;;5114506;28;20016;-65
2023/10/20 11:37:51;;;;;;;28.83;5.95;;;18.00;99.90;;;;;;5115611;28;20034;-65
2023/10/20 11:40:18;;;;;;;22.52;5.88;;;18.00;99.90;;;;;;5115306;28;20023;-65
2023/10/20 11:42:44;;;;;;;23.63;5.80;;;18.00;99.90;;;;;;5115269;28;20070;-65
2023/10/20 11:45:11;;;;;;;21.40;5.32;;;18.20;99.90;;;;;;5114874;28;20016;-65
2023/10/20 11:47:37;;;;;;;21.17;5.55;;;18.10;99.90;;;;;;5115342;28;20034;-65
2023/10/20 11:50:04;;;;;;;21.17;5.97;;;18.10;99.90;;;;;;5115010;28;20042;-64
2023/10/20 11:52:30;;;;;;;21.90;5.82;;;18.00;99.90;;;;;;5114842;28;20099;-65
2023/10/20 11:54:56;;;;;;;21.80;5.18;;;18.00;99.90;;;;;;5114644;28;20088;-65
2023/10/20 11:57:21;;;;;;;23.50;6.22;;;18.10;99.90;;;;;;5114416;28;20019;-65
2023/10/20 11:59:47;;;;;;;24.02;6.38;;;18.30;99.90;;;;;;5115152;28;20035;-64
2023/10/20 12:02:13;;;;;;;25.35;6.35;;;18.50;99.90;;;;;;5114934;28;20034;-64
2023/10/20 12:04:39;;;;;;;27.55;6.28;;;18.60;99.90;;;;;;5096558;28;20579;-64
2023/10/20 12:07:05;;;;;;;32.10;7.13;;;18.70;99.90;;;;;;5096900;28;20135;-64
2023/10/20 12:09:30;;;;;;;24.83;6.13;;;18.60;99.90;;;;;;5096169;28;20012;-64
2023/10/20 12:11:56;;;;;;;26.95;6.65;;;18.70;99.90;;;;;;5114620;28;20451;-63
2023/10/20 12:14:22;;;;;;;21.98;6.65;;;18.70;99.90;;;;;;5114313;28;20047;-63
2023/10/20 12:16:48;;;;;;;18.02;5.68;;;18.90;99.90;;;;;;5114604;28;20496;-63
2023/10/20 12:19:13;;;;;;;20.38;5.90;;;19.20;99.90;;;;;;5115183;28;20497;-63
2023/10/20 12:21:39;;;;;;;21.45;5.70;;;19.50;99.90;;;;;;5114297;28;20389;-63
2023/10/20 12:24:05;;;;;;;18.55;4.78;;;19.60;99.90;;;;;;5114555;28;20106;-62
2023/10/20 12:26:31;;;;;;;21.35;5.03;;;19.60;99.90;;;;;;5095984;28;20035;-63
2023/10/20 12:28:56;;;;;;;19.48;5.65;;;19.60;99.90;;;;;;5114470;28;20402;-63
2023/10/20 12:31:25;;;;;;;21.73;5.53;;;19.60;99.90;;;;;;5114464;28;20093;-63
2023/10/20 12:33:51;;;;;;;19.33;5.18;;;19.50;99.90;;;;;;5114542;28;20032;-63
2023/10/20 12:36:17;;;;;;;19.60;5.32;;;19.40;99.90;;;;;;5114498;28;20031;-63
2023/10/20 12:38:46;;;;;;;21.92;5.70;;;19.40;99.90;;;;;;5114788;28;20050;-63
2023/10/20 12:41:13;;;;;;;17.73;5.38;;;19.70;99.90;;;;;;5113895;28;20031;-63
2023/10/20 12:43:40;;;;;;;20.48;5.45;;;19.80;99.90;;;;;;5113953;28;20390;-63
2023/10/20 12:46:06;;;;;;;21.83;5.15;;;19.80;99.90;;;;;;5114244;28;20027;-62
2023/10/20 12:48:32;;;;;;;24.77;6.10;;;20.00;99.90;;;;;;5114251;28;20528;-63
2023/10/20 12:50:58;;;;;;;22.02;6.25;;;19.90;99.90;;;;;;5114509;28;20081;-63
2023/10/20 12:53:23;;;;;;;22.75;5.80;;;19.80;99.90;;;;;;5114142;28;20059;-63
2023/10/20 12:55:52;;;;;;;23.23;6.00;;;19.70;99.90;;;;;;5113865;28;20023;-63
2023/10/20 12:58:18;;;;;;;20.05;5.55;;;19.50;99.90;;;;;;5113892;28;20027;-63
2023/10/20 13:00:45;;;;;;;15.65;4.40;;;19.20;99.90;;;;;;5114259;28;20076;-63
2023/10/20 13:03:10;;;;;;;15.80;4.38;;;18.80;99.90;;;;;;5113920;28;20057;-63
2023/10/20 13:05:36;;;;;;;17.33;4.45;;;18.50;99.90;;;;;;5113899;28;20032;-62
2023/10/20 13:08:02;;;;;;;15.85;4.32;;;18.40;99.90;;;;;;5114332;28;20031;-63
2023/10/20 13:10:28;;;;;;;21.05;5.43;;;18.30;99.90;;;;;;5113540;28;20027;-62
2023/10/20 13:12:54;;;;;;;23.52;5.63;;;18.20;99.90;;;;;;5113650;28;20496;-62
2023/10/20 13:15:20;;;;;;;19.48;5.15;;;18.20;99.90;;;;;;5113836;28;20031;-62
2023/10/20 13:17:46;;;;;;;20.60;5.72;;;18.30;99.90;;;;;;5113786;28;20034;-62
2023/10/20 13:20:13;;;;;;;18.85;4.75;;;18.50;99.90;;;;;;5113617;28;20027;-62
2023/10/20 13:22:39;;;;;;;18.13;4.57;;;18.50;99.90;;;;;;5113568;28;20485;-62